Atwood, Oklahoma
Current Conditions -  °F | °C
As of 1:35 PM on Thursday 27 Nov 2014 (Local Time) from KADH Reporting Station
Clear Clear  
Wind Chill: 50°   Ceiling: Unl
Heat Index: 50°   Visibility: 10mi
Dew Point: 25°   Wind: 3mph
Humidity: 37%   Direction: 150°SSE
Pressure: 30.45"   Gusts: NA
Location:  34.96°N, 96.34°W
Report Text: KADH 271935Z AUTO 15003KT 10SM CLR 10/M04 A3045 RMK AO2
Loading
Personal Weather Stations






























Interactive Weather Map New forecast layout! Learn more

10-Day Weather Forecast

Advertisements
Track Severe Weather on mobile